sensor_id;sensor_type;location;lat;lon;timestamp;P1;durP1;ratioP1;P2;durP2;ratioP2
73841;SDS011;62184;52.006;5.924;2023-03-30T00:00:06;10.60;;;5.50;;
73841;SDS011;62184;52.006;5.924;2023-03-30T00:02:34;9.50;;;5.18;;
73841;SDS011;62184;52.006;5.924;2023-03-30T00:05:04;11.30;;;5.20;;
73841;SDS011;62184;52.006;5.924;2023-03-30T00:07:31;10.35;;;5.60;;
73841;SDS011;62184;52.006;5.924;2023-03-30T00:09:57;9.13;;;5.18;;
73841;SDS011;62184;52.006;5.924;2023-03-30T00:12:24;10.15;;;5.15;;
73841;SDS011;62184;52.006;5.924;2023-03-30T00:14:50;10.00;;;5.15;;
73841;SDS011;62184;52.006;5.924;2023-03-30T00:17:17;8.57;;;5.20;;
73841;SDS011;62184;52.006;5.924;2023-03-30T00:19:44;9.73;;;4.90;;
73841;SDS011;62184;52.006;5.924;2023-03-30T00:22:13;9.17;;;5.00;;
73841;SDS011;62184;52.006;5.924;2023-03-30T00:24:39;9.38;;;5.10;;
73841;SDS011;62184;52.006;5.924;2023-03-30T00:27:06;9.13;;;4.73;;
73841;SDS011;62184;52.006;5.924;2023-03-30T00:29:33;9.35;;;4.82;;
73841;SDS011;62184;52.006;5.924;2023-03-30T00:31:59;10.43;;;5.20;;
73841;SDS011;62184;52.006;5.924;2023-03-30T00:34:26;7.93;;;4.90;;
73841;SDS011;62184;52.006;5.924;2023-03-30T00:36:52;9.65;;;5.05;;
73841;SDS011;62184;52.006;5.924;2023-03-30T00:39:21;9.77;;;5.03;;
73841;SDS011;62184;52.006;5.924;2023-03-30T00:41:48;8.43;;;4.80;;
73841;SDS011;62184;52.006;5.924;2023-03-30T00:47:30;8.30;;;4.72;;
73841;SDS011;62184;52.006;5.924;2023-03-30T00:49:57;9.63;;;4.80;;
73841;SDS011;62184;52.006;5.924;2023-03-30T00:52:24;8.17;;;4.50;;
73841;SDS011;62184;52.006;5.924;2023-03-30T00:54:54;8.40;;;4.50;;
73841;SDS011;62184;52.006;5.924;2023-03-30T00:57:22;9.10;;;4.70;;
73841;SDS011;62184;52.006;5.924;2023-03-30T00:59:51;8.60;;;4.50;;
73841;SDS011;62184;52.006;5.924;2023-03-30T01:02:19;11.02;;;4.30;;
73841;SDS011;62184;52.006;5.924;2023-03-30T01:04:46;7.90;;;4.40;;
73841;SDS011;62184;52.006;5.924;2023-03-30T01:07:18;7.82;;;4.18;;
73841;SDS011;62184;52.006;5.924;2023-03-30T01:09:45;7.93;;;4.13;;
73841;SDS011;62184;52.006;5.924;2023-03-30T01:12:14;9.45;;;4.20;;
73841;SDS011;62184;52.006;5.924;2023-03-30T01:14:40;8.18;;;4.13;;
73841;SDS011;62184;52.006;5.924;2023-03-30T01:17:09;8.25;;;4.30;;
73841;SDS011;62184;52.006;5.924;2023-03-30T01:23:24;8.23;;;4.17;;
73841;SDS011;62184;52.006;5.924;2023-03-30T01:26:24;8.63;;;4.30;;
73841;SDS011;62184;52.006;5.924;2023-03-30T01:32:51;8.60;;;4.60;;
73841;SDS011;62184;52.006;5.924;2023-03-30T01:35:44;7.72;;;4.10;;
73841;SDS011;62184;52.006;5.924;2023-03-30T01:38:58;9.07;;;4.40;;
73841;SDS011;62184;52.006;5.924;2023-03-30T01:41:41;8.50;;;4.60;;
73841;SDS011;62184;52.006;5.924;2023-03-30T01:44:26;7.83;;;4.30;;
73841;SDS011;62184;52.006;5.924;2023-03-30T01:47:02;8.10;;;4.68;;
73841;SDS011;62184;52.006;5.924;2023-03-30T01:49:40;6.70;;;4.47;;
73841;SDS011;62184;52.006;5.924;2023-03-30T01:52:14;7.65;;;4.20;;
73841;SDS011;62184;52.006;5.924;2023-03-30T01:54:53;8.55;;;4.40;;
73841;SDS011;62184;52.006;5.924;2023-03-30T01:57:28;8.77;;;4.47;;
73841;SDS011;62184;52.006;5.924;2023-03-30T02:00:03;7.80;;;4.27;;
73841;SDS011;62184;52.006;5.924;2023-03-30T02:02:35;7.95;;;4.50;;
73841;SDS011;62184;52.006;5.924;2023-03-30T02:05:03;7.05;;;4.40;;
73841;SDS011;62184;52.006;5.924;2023-03-30T02:07:33;8.23;;;4.80;;
73841;SDS011;62184;52.006;5.924;2023-03-30T02:10:07;7.90;;;4.60;;
73841;SDS011;62184;52.006;5.924;2023-03-30T02:12:40;8.70;;;4.65;;
73841;SDS011;62184;52.006;5.924;2023-03-30T02:15:10;7.43;;;4.50;;
73841;SDS011;62184;52.006;5.924;2023-03-30T02:17:41;9.37;;;4.50;;
73841;SDS011;62184;52.006;5.924;2023-03-30T02:20:08;8.77;;;4.70;;
73841;SDS011;62184;52.006;5.924;2023-03-30T02:22:36;8.02;;;4.40;;
73841;SDS011;62184;52.006;5.924;2023-03-30T02:25:03;8.20;;;4.55;;
73841;SDS011;62184;52.006;5.924;2023-03-30T02:27:33;8.27;;;4.20;;
73841;SDS011;62184;52.006;5.924;2023-03-30T02:30:01;8.63;;;4.47;;
73841;SDS011;62184;52.006;5.924;2023-03-30T02:32:28;9.27;;;4.32;;
73841;SDS011;62184;52.006;5.924;2023-03-30T02:35:16;8.35;;;4.68;;
73841;SDS011;62184;52.006;5.924;2023-03-30T02:38:03;9.90;;;4.50;;
73841;SDS011;62184;52.006;5.924;2023-03-30T02:41:10;8.02;;;4.68;;
73841;SDS011;62184;52.006;5.924;2023-03-30T02:43:56;8.57;;;4.93;;
73841;SDS011;62184;52.006;5.924;2023-03-30T02:46:41;7.87;;;4.10;;
73841;SDS011;62184;52.006;5.924;2023-03-30T02:49:30;6.60;;;4.20;;
73841;SDS011;62184;52.006;5.924;2023-03-30T02:52:12;6.70;;;3.90;;
73841;SDS011;62184;52.006;5.924;2023-03-30T02:54:54;7.50;;;4.10;;
73841;SDS011;62184;52.006;5.924;2023-03-30T02:57:39;7.85;;;4.13;;
73841;SDS011;62184;52.006;5.924;2023-03-30T03:00:18;7.40;;;3.80;;
73841;SDS011;62184;52.006;5.924;2023-03-30T03:02:54;6.80;;;3.87;;
73841;SDS011;62184;52.006;5.924;2023-03-30T03:05:29;6.53;;;3.83;;
73841;SDS011;62184;52.006;5.924;2023-03-30T03:07:56;7.38;;;3.65;;
73841;SDS011;62184;52.006;5.924;2023-03-30T03:10:23;9.43;;;3.90;;
73841;SDS011;62184;52.006;5.924;2023-03-30T03:12:52;7.93;;;3.60;;
73841;SDS011;62184;52.006;5.924;2023-03-30T03:15:18;7.93;;;3.50;;
73841;SDS011;62184;52.006;5.924;2023-03-30T03:17:44;7.00;;;3.47;;
73841;SDS011;62184;52.006;5.924;2023-03-30T03:20:11;7.27;;;3.47;;
73841;SDS011;62184;52.006;5.924;2023-03-30T03:22:38;7.72;;;3.53;;
73841;SDS011;62184;52.006;5.924;2023-03-30T03:25:05;5.43;;;3.30;;
73841;SDS011;62184;52.006;5.924;2023-03-30T03:27:32;7.25;;;3.47;;
73841;SDS011;62184;52.006;5.924;2023-03-30T03:30:02;6.00;;;3.28;;
73841;SDS011;62184;52.006;5.924;2023-03-30T03:32:29;6.45;;;3.15;;
73841;SDS011;62184;52.006;5.924;2023-03-30T03:34:55;5.65;;;3.17;;
73841;SDS011;62184;52.006;5.924;2023-03-30T03:37:21;6.25;;;3.22;;
73841;SDS011;62184;52.006;5.924;2023-03-30T03:39:48;5.80;;;3.30;;
73841;SDS011;62184;52.006;5.924;2023-03-30T03:42:14;6.10;;;3.30;;
73841;SDS011;62184;52.006;5.924;2023-03-30T03:44:41;5.78;;;3.00;;
73841;SDS011;62184;52.006;5.924;2023-03-30T03:47:10;8.70;;;3.27;;
73841;SDS011;62184;52.006;5.924;2023-03-30T03:49:36;6.80;;;3.17;;
73841;SDS011;62184;52.006;5.924;2023-03-30T03:52:03;7.88;;;3.70;;
73841;SDS011;62184;52.006;5.924;2023-03-30T03:54:29;6.93;;;3.57;;
73841;SDS011;62184;52.006;5.924;2023-03-30T03:56:56;6.45;;;3.47;;
73841;SDS011;62184;52.006;5.924;2023-03-30T03:59:22;6.70;;;3.33;;
73841;SDS011;62184;52.006;5.924;2023-03-30T04:01:49;7.10;;;3.40;;
73841;SDS011;62184;52.006;5.924;2023-03-30T04:04:18;6.78;;;3.50;;
73841;SDS011;62184;52.006;5.924;2023-03-30T04:06:44;7.90;;;3.10;;
73841;SDS011;62184;52.006;5.924;2023-03-30T04:09:10;6.13;;;3.00;;
73841;SDS011;62184;52.006;5.924;2023-03-30T04:11:37;7.82;;;3.70;;
73841;SDS011;62184;52.006;5.924;2023-03-30T04:14:03;6.85;;;3.53;;
73841;SDS011;62184;52.006;5.924;2023-03-30T04:16:30;7.07;;;3.63;;
73841;SDS011;62184;52.006;5.924;2023-03-30T04:18:56;5.83;;;3.20;;
73841;SDS011;62184;52.006;5.924;2023-03-30T04:21:25;6.33;;;3.70;;
73841;SDS011;62184;52.006;5.924;2023-03-30T04:23:52;6.95;;;3.42;;
73841;SDS011;62184;52.006;5.924;2023-03-30T04:26:18;7.13;;;3.80;;
73841;SDS011;62184;52.006;5.924;2023-03-30T04:28:45;8.20;;;3.20;;
73841;SDS011;62184;52.006;5.924;2023-03-30T04:31:11;7.10;;;3.83;;
73841;SDS011;62184;52.006;5.924;2023-03-30T04:33:39;5.57;;;2.63;;
73841;SDS011;62184;52.006;5.924;2023-03-30T04:36:06;7.20;;;3.53;;
73841;SDS011;62184;52.006;5.924;2023-03-30T04:38:35;6.95;;;2.90;;
73841;SDS011;62184;52.006;5.924;2023-03-30T04:41:02;6.28;;;3.20;;
73841;SDS011;62184;52.006;5.924;2023-03-30T04:43:28;6.30;;;3.13;;
73841;SDS011;62184;52.006;5.924;2023-03-30T04:45:55;5.88;;;2.83;;
73841;SDS011;62184;52.006;5.924;2023-03-30T04:48:22;7.17;;;3.20;;
73841;SDS011;62184;52.006;5.924;2023-03-30T04:50:49;6.10;;;2.80;;
73841;SDS011;62184;52.006;5.924;2023-03-30T04:53:16;7.28;;;2.80;;
73841;SDS011;62184;52.006;5.924;2023-03-30T04:55:48;6.13;;;3.10;;
73841;SDS011;62184;52.006;5.924;2023-03-30T04:58:16;5.85;;;2.80;;
73841;SDS011;62184;52.006;5.924;2023-03-30T05:00:43;7.85;;;3.17;;
73841;SDS011;62184;52.006;5.924;2023-03-30T05:03:09;6.33;;;3.23;;
73841;SDS011;62184;52.006;5.924;2023-03-30T05:05:36;7.25;;;3.17;;
73841;SDS011;62184;52.006;5.924;2023-03-30T05:08:02;7.80;;;3.40;;
73841;SDS011;62184;52.006;5.924;2023-03-30T05:10:29;9.00;;;3.70;;
73841;SDS011;62184;52.006;5.924;2023-03-30T05:12:58;8.88;;;4.20;;
73841;SDS011;62184;52.006;5.924;2023-03-30T05:15:25;9.98;;;4.15;;
73841;SDS011;62184;52.006;5.924;2023-03-30T05:17:51;8.20;;;4.27;;
73841;SDS011;62184;52.006;5.924;2023-03-30T05:20:17;9.50;;;4.40;;
73841;SDS011;62184;52.006;5.924;2023-03-30T05:22:44;8.60;;;4.50;;
73841;SDS011;62184;52.006;5.924;2023-03-30T05:25:10;10.10;;;4.55;;
73841;SDS011;62184;52.006;5.924;2023-03-30T05:27:37;9.63;;;4.80;;
73841;SDS011;62184;52.006;5.924;2023-03-30T05:30:06;11.43;;;4.25;;
73841;SDS011;62184;52.006;5.924;2023-03-30T05:32:34;9.50;;;4.60;;
73841;SDS011;62184;52.006;5.924;2023-03-30T05:35:00;10.98;;;4.70;;
73841;SDS011;62184;52.006;5.924;2023-03-30T05:37:26;10.68;;;4.68;;
73841;SDS011;62184;52.006;5.924;2023-03-30T05:39:53;10.85;;;4.78;;
73841;SDS011;62184;52.006;5.924;2023-03-30T05:42:19;10.30;;;4.90;;
73841;SDS011;62184;52.006;5.924;2023-03-30T05:44:46;10.50;;;4.65;;
73841;SDS011;62184;52.006;5.924;2023-03-30T05:47:15;11.45;;;4.78;;
73841;SDS011;62184;52.006;5.924;2023-03-30T05:49:42;11.63;;;4.85;;
73841;SDS011;62184;52.006;5.924;2023-03-30T05:52:08;11.60;;;4.88;;
73841;SDS011;62184;52.006;5.924;2023-03-30T05:54:35;11.17;;;4.67;;
73841;SDS011;62184;52.006;5.924;2023-03-30T05:57:01;10.80;;;4.70;;
73841;SDS011;62184;52.006;5.924;2023-03-30T05:59:28;10.93;;;4.80;;
73841;SDS011;62184;52.006;5.924;2023-03-30T06:01:54;12.80;;;5.13;;
73841;SDS011;62184;52.006;5.924;2023-03-30T06:04:23;11.70;;;5.40;;
73841;SDS011;62184;52.006;5.924;2023-03-30T06:06:50;10.38;;;5.10;;
73841;SDS011;62184;52.006;5.924;2023-03-30T06:09:16;12.25;;;4.93;;
73841;SDS011;62184;52.006;5.924;2023-03-30T06:11:43;10.80;;;4.82;;
73841;SDS011;62184;52.006;5.924;2023-03-30T06:14:09;11.70;;;4.80;;
73841;SDS011;62184;52.006;5.924;2023-03-30T06:16:36;11.60;;;5.10;;
73841;SDS011;62184;52.006;5.924;2023-03-30T06:19:02;11.95;;;5.05;;
73841;SDS011;62184;52.006;5.924;2023-03-30T06:21:31;10.50;;;5.18;;
73841;SDS011;62184;52.006;5.924;2023-03-30T06:23:58;11.25;;;5.00;;
73841;SDS011;62184;52.006;5.924;2023-03-30T06:26:24;11.63;;;5.13;;
73841;SDS011;62184;52.006;5.924;2023-03-30T06:28:51;11.70;;;4.70;;
73841;SDS011;62184;52.006;5.924;2023-03-30T06:31:17;14.35;;;5.20;;
73841;SDS011;62184;52.006;5.924;2023-03-30T06:33:43;12.63;;;5.38;;
73841;SDS011;62184;52.006;5.924;2023-03-30T06:36:10;11.50;;;4.20;;
73841;SDS011;62184;52.006;5.924;2023-03-30T06:38:41;11.60;;;4.28;;
73841;SDS011;62184;52.006;5.924;2023-03-30T06:41:08;10.43;;;3.80;;
73841;SDS011;62184;52.006;5.924;2023-03-30T06:43:34;11.38;;;3.83;;
73841;SDS011;62184;52.006;5.924;2023-03-30T06:46:02;13.20;;;4.18;;
73841;SDS011;62184;52.006;5.924;2023-03-30T06:48:29;12.88;;;3.83;;
73841;SDS011;62184;52.006;5.924;2023-03-30T06:50:56;11.60;;;3.72;;
73841;SDS011;62184;52.006;5.924;2023-03-30T06:53:23;9.73;;;3.75;;
73841;SDS011;62184;52.006;5.924;2023-03-30T06:55:52;15.50;;;4.22;;
73841;SDS011;62184;52.006;5.924;2023-03-30T06:58:21;11.77;;;4.65;;
73841;SDS011;62184;52.006;5.924;2023-03-30T07:00:49;13.90;;;4.55;;
73841;SDS011;62184;52.006;5.924;2023-03-30T07:03:16;14.10;;;4.55;;
73841;SDS011;62184;52.006;5.924;2023-03-30T07:05:45;10.97;;;4.17;;
73841;SDS011;62184;52.006;5.924;2023-03-30T07:08:12;14.20;;;4.25;;
73841;SDS011;62184;52.006;5.924;2023-03-30T07:10:39;12.68;;;3.92;;
73841;SDS011;62184;52.006;5.924;2023-03-30T07:13:08;13.60;;;3.90;;
73841;SDS011;62184;52.006;5.924;2023-03-30T07:15:35;13.00;;;4.10;;
73841;SDS011;62184;52.006;5.924;2023-03-30T07:18:01;13.97;;;4.57;;
73841;SDS011;62184;52.006;5.924;2023-03-30T07:20:28;11.98;;;3.65;;
73841;SDS011;62184;52.006;5.924;2023-03-30T07:22:55;13.70;;;3.83;;
73841;SDS011;62184;52.006;5.924;2023-03-30T07:25:21;15.27;;;3.53;;
73841;SDS011;62184;52.006;5.924;2023-03-30T07:27:48;12.18;;;3.85;;
73841;SDS011;62184;52.006;5.924;2023-03-30T07:30:17;12.15;;;3.40;;
73841;SDS011;62184;52.006;5.924;2023-03-30T07:32:43;13.20;;;3.80;;
73841;SDS011;62184;52.006;5.924;2023-03-30T07:35:09;13.02;;;3.70;;
73841;SDS011;62184;52.006;5.924;2023-03-30T07:37:36;10.93;;;3.80;;
73841;SDS011;62184;52.006;5.924;2023-03-30T07:40:03;11.13;;;4.35;;
73841;SDS011;62184;52.006;5.924;2023-03-30T07:42:30;11.02;;;4.45;;
73841;SDS011;62184;52.006;5.924;2023-03-30T07:44:56;14.18;;;4.07;;
73841;SDS011;62184;52.006;5.924;2023-03-30T07:47:26;12.17;;;3.90;;
73841;SDS011;62184;52.006;5.924;2023-03-30T07:49:52;13.27;;;4.03;;
73841;SDS011;62184;52.006;5.924;2023-03-30T07:52:18;10.13;;;3.83;;
73841;SDS011;62184;52.006;5.924;2023-03-30T07:54:45;11.30;;;3.97;;
73841;SDS011;62184;52.006;5.924;2023-03-30T07:57:11;12.20;;;3.87;;
73841;SDS011;62184;52.006;5.924;2023-03-30T07:59:38;11.60;;;3.50;;
73841;SDS011;62184;52.006;5.924;2023-03-30T08:02:04;12.80;;;3.30;;
73841;SDS011;62184;52.006;5.924;2023-03-30T08:04:34;11.63;;;3.53;;
73841;SDS011;62184;52.006;5.924;2023-03-30T08:07:00;13.82;;;3.53;;
73841;SDS011;62184;52.006;5.924;2023-03-30T08:09:27;14.05;;;3.53;;
73841;SDS011;62184;52.006;5.924;2023-03-30T08:11:53;12.87;;;3.30;;
73841;SDS011;62184;52.006;5.924;2023-03-30T08:14:20;13.03;;;3.43;;
73841;SDS011;62184;52.006;5.924;2023-03-30T08:16:46;13.57;;;4.10;;
73841;SDS011;62184;52.006;5.924;2023-03-30T08:19:12;13.25;;;3.40;;
73841;SDS011;62184;52.006;5.924;2023-03-30T08:21:41;13.20;;;3.65;;
73841;SDS011;62184;52.006;5.924;2023-03-30T08:24:08;15.77;;;3.80;;
73841;SDS011;62184;52.006;5.924;2023-03-30T08:26:34;14.45;;;3.63;;
73841;SDS011;62184;52.006;5.924;2023-03-30T08:29:01;15.13;;;3.95;;
73841;SDS011;62184;52.006;5.924;2023-03-30T08:31:27;13.25;;;3.50;;
73841;SDS011;62184;52.006;5.924;2023-03-30T08:33:54;13.07;;;3.65;;
73841;SDS011;62184;52.006;5.924;2023-03-30T08:36:20;12.45;;;3.60;;
73841;SDS011;62184;52.006;5.924;2023-03-30T08:38:49;14.38;;;3.40;;
73841;SDS011;62184;52.006;5.924;2023-03-30T08:41:30;13.90;;;3.83;;
73841;SDS011;62184;52.006;5.924;2023-03-30T08:44:38;12.32;;;3.90;;
73841;SDS011;62184;52.006;5.924;2023-03-30T08:47:09;15.02;;;4.00;;
73841;SDS011;62184;52.006;5.924;2023-03-30T08:49:40;16.13;;;3.72;;
73841;SDS011;62184;52.006;5.924;2023-03-30T08:52:18;13.43;;;4.00;;
73841;SDS011;62184;52.006;5.924;2023-03-30T08:54:52;13.50;;;3.70;;
73841;SDS011;62184;52.006;5.924;2023-03-30T08:57:23;13.68;;;4.00;;
73841;SDS011;62184;52.006;5.924;2023-03-30T09:00:09;13.85;;;3.70;;
73841;SDS011;62184;52.006;5.924;2023-03-30T09:02:50;15.30;;;4.13;;
73841;SDS011;62184;52.006;5.924;2023-03-30T09:05:27;12.88;;;3.70;;
73841;SDS011;62184;52.006;5.924;2023-03-30T09:07:58;13.73;;;3.75;;
73841;SDS011;62184;52.006;5.924;2023-03-30T09:10:38;12.10;;;4.00;;
73841;SDS011;62184;52.006;5.924;2023-03-30T09:13:11;13.57;;;4.03;;
73841;SDS011;62184;52.006;5.924;2023-03-30T09:15:44;16.48;;;4.35;;
73841;SDS011;62184;52.006;5.924;2023-03-30T09:18:20;11.95;;;3.70;;
73841;SDS011;62184;52.006;5.924;2023-03-30T09:20:53;15.27;;;4.50;;
73841;SDS011;62184;52.006;5.924;2023-03-30T09:23:24;14.20;;;4.75;;
73841;SDS011;62184;52.006;5.924;2023-03-30T09:25:56;14.77;;;4.80;;
73841;SDS011;62184;52.006;5.924;2023-03-30T09:28:37;15.48;;;4.57;;
73841;SDS011;62184;52.006;5.924;2023-03-30T09:31:15;18.08;;;4.88;;
73841;SDS011;62184;52.006;5.924;2023-03-30T09:33:50;15.10;;;4.60;;
73841;SDS011;62184;52.006;5.924;2023-03-30T09:36:28;15.93;;;4.87;;
73841;SDS011;62184;52.006;5.924;2023-03-30T09:39:07;17.50;;;4.57;;
73841;SDS011;62184;52.006;5.924;2023-03-30T09:41:45;14.77;;;4.80;;
73841;SDS011;62184;52.006;5.924;2023-03-30T09:44:26;18.07;;;5.37;;
73841;SDS011;62184;52.006;5.924;2023-03-30T09:46:59;18.08;;;4.72;;
73841;SDS011;62184;52.006;5.924;2023-03-30T09:49:27;17.13;;;4.85;;
73841;SDS011;62184;52.006;5.924;2023-03-30T09:52:04;15.88;;;4.60;;
73841;SDS011;62184;52.006;5.924;2023-03-30T09:54:35;17.35;;;4.78;;
73841;SDS011;62184;52.006;5.924;2023-03-30T09:57:08;18.63;;;4.60;;
73841;SDS011;62184;52.006;5.924;2023-03-30T09:59:51;13.13;;;4.15;;
73841;SDS011;62184;52.006;5.924;2023-03-30T10:02:18;15.80;;;4.17;;
73841;SDS011;62184;52.006;5.924;2023-03-30T10:04:56;17.63;;;4.60;;
73841;SDS011;62184;52.006;5.924;2023-03-30T10:07:31;14.57;;;4.32;;
73841;SDS011;62184;52.006;5.924;2023-03-30T10:10:03;18.02;;;4.70;;
73841;SDS011;62184;52.006;5.924;2023-03-30T10:12:43;17.05;;;4.78;;
73841;SDS011;62184;52.006;5.924;2023-03-30T10:15:13;14.50;;;4.72;;
73841;SDS011;62184;52.006;5.924;2023-03-30T10:17:43;18.17;;;4.93;;
73841;SDS011;62184;52.006;5.924;2023-03-30T10:20:14;15.23;;;4.60;;
73841;SDS011;62184;52.006;5.924;2023-03-30T10:22:50;15.23;;;4.78;;
73841;SDS011;62184;52.006;5.924;2023-03-30T10:25:19;19.67;;;5.70;;
73841;SDS011;62184;52.006;5.924;2023-03-30T10:27:51;14.75;;;4.80;;
73841;SDS011;62184;52.006;5.924;2023-03-30T10:30:21;17.40;;;4.87;;
73841;SDS011;62184;52.006;5.924;2023-03-30T10:32:50;19.92;;;5.10;;
73841;SDS011;62184;52.006;5.924;2023-03-30T10:35:21;17.55;;;5.07;;
73841;SDS011;62184;52.006;5.924;2023-03-30T10:37:53;15.85;;;5.20;;
73841;SDS011;62184;52.006;5.924;2023-03-30T10:40:22;17.05;;;4.90;;
73841;SDS011;62184;52.006;5.924;2023-03-30T10:42:59;15.70;;;5.05;;
73841;SDS011;62184;52.006;5.924;2023-03-30T10:45:30;14.80;;;4.93;;
73841;SDS011;62184;52.006;5.924;2023-03-30T10:48:05;17.38;;;5.00;;
73841;SDS011;62184;52.006;5.924;2023-03-30T10:50:53;17.87;;;5.37;;
73841;SDS011;62184;52.006;5.924;2023-03-30T10:53:37;15.98;;;5.20;;
73841;SDS011;62184;52.006;5.924;2023-03-30T10:56:18;19.38;;;5.95;;
73841;SDS011;62184;52.006;5.924;2023-03-30T11:02:11;17.90;;;5.38;;
73841;SDS011;62184;52.006;5.924;2023-03-30T11:05:01;18.13;;;5.50;;
73841;SDS011;62184;52.006;5.924;2023-03-30T11:07:37;16.73;;;5.00;;
73841;SDS011;62184;52.006;5.924;2023-03-30T11:10:12;20.33;;;5.40;;
73841;SDS011;62184;52.006;5.924;2023-03-30T11:12:45;18.80;;;5.10;;
73841;SDS011;62184;52.006;5.924;2023-03-30T11:15:22;18.23;;;5.30;;
73841;SDS011;62184;52.006;5.924;2023-03-30T11:17:56;15.65;;;5.43;;
73841;SDS011;62184;52.006;5.924;2023-03-30T11:20:36;19.60;;;5.40;;
73841;SDS011;62184;52.006;5.924;2023-03-30T11:23:12;19.38;;;5.55;;
73841;SDS011;62184;52.006;5.924;2023-03-30T11:25:51;17.50;;;6.00;;
73841;SDS011;62184;52.006;5.924;2023-03-30T11:28:31;18.02;;;5.80;;
73841;SDS011;62184;52.006;5.924;2023-03-30T11:31:25;16.40;;;5.68;;
73841;SDS011;62184;52.006;5.924;2023-03-30T11:34:07;18.85;;;6.00;;
73841;SDS011;62184;52.006;5.924;2023-03-30T11:36:44;18.38;;;5.50;;
73841;SDS011;62184;52.006;5.924;2023-03-30T11:39:22;20.40;;;5.80;;
73841;SDS011;62184;52.006;5.924;2023-03-30T11:41:55;16.25;;;5.47;;
73841;SDS011;62184;52.006;5.924;2023-03-30T11:44:30;18.97;;;5.60;;
73841;SDS011;62184;52.006;5.924;2023-03-30T11:47:01;19.15;;;6.07;;
73841;SDS011;62184;52.006;5.924;2023-03-30T11:49:51;15.65;;;5.15;;
73841;SDS011;62184;52.006;5.924;2023-03-30T11:52:40;15.05;;;4.60;;
73841;SDS011;62184;52.006;5.924;2023-03-30T11:55:24;16.83;;;5.10;;
73841;SDS011;62184;52.006;5.924;2023-03-30T11:58:08;17.30;;;4.90;;
73841;SDS011;62184;52.006;5.924;2023-03-30T12:00:48;16.23;;;5.05;;
73841;SDS011;62184;52.006;5.924;2023-03-30T12:03:43;17.23;;;5.05;;
73841;SDS011;62184;52.006;5.924;2023-03-30T12:06:28;15.90;;;4.70;;
73841;SDS011;62184;52.006;5.924;2023-03-30T12:09:02;14.07;;;5.07;;
73841;SDS011;62184;52.006;5.924;2023-03-30T12:11:49;15.85;;;5.00;;
73841;SDS011;62184;52.006;5.924;2023-03-30T12:14:29;14.13;;;4.93;;
73841;SDS011;62184;52.006;5.924;2023-03-30T12:17:12;15.95;;;5.03;;
73841;SDS011;62184;52.006;5.924;2023-03-30T12:20:09;15.57;;;4.85;;
73841;SDS011;62184;52.006;5.924;2023-03-30T12:22:51;14.63;;;4.88;;
73841;SDS011;62184;52.006;5.924;2023-03-30T12:25:27;14.20;;;5.00;;
73841;SDS011;62184;52.006;5.924;2023-03-30T12:28:14;13.90;;;5.18;;
73841;SDS011;62184;52.006;5.924;2023-03-30T12:30:44;15.15;;;4.88;;
73841;SDS011;62184;52.006;5.924;2023-03-30T12:33:24;16.40;;;5.40;;
73841;SDS011;62184;52.006;5.924;2023-03-30T12:35:56;13.30;;;4.80;;
73841;SDS011;62184;52.006;5.924;2023-03-30T12:38:25;14.13;;;4.80;;
73841;SDS011;62184;52.006;5.924;2023-03-30T12:41:02;14.82;;;5.05;;
73841;SDS011;62184;52.006;5.924;2023-03-30T12:43:36;15.68;;;4.97;;
73841;SDS011;62184;52.006;5.924;2023-03-30T12:46:24;12.70;;;4.90;;
73841;SDS011;62184;52.006;5.924;2023-03-30T12:49:00;14.90;;;5.57;;
73841;SDS011;62184;52.006;5.924;2023-03-30T12:51:46;13.35;;;5.00;;
73841;SDS011;62184;52.006;5.924;2023-03-30T12:54:38;15.98;;;5.20;;
73841;SDS011;62184;52.006;5.924;2023-03-30T12:57:35;15.32;;;5.18;;
73841;SDS011;62184;52.006;5.924;2023-03-30T13:03:35;17.70;;;5.40;;
73841;SDS011;62184;52.006;5.924;2023-03-30T13:06:13;18.25;;;5.82;;
73841;SDS011;62184;52.006;5.924;2023-03-30T13:08:55;14.93;;;5.40;;
73841;SDS011;62184;52.006;5.924;2023-03-30T13:11:41;14.75;;;6.00;;
73841;SDS011;62184;52.006;5.924;2023-03-30T13:14:14;16.93;;;6.00;;
73841;SDS011;62184;52.006;5.924;2023-03-30T13:17:09;16.70;;;6.00;;
73841;SDS011;62184;52.006;5.924;2023-03-30T13:19:41;17.95;;;6.20;;
73841;SDS011;62184;52.006;5.924;2023-03-30T13:22:19;16.67;;;5.90;;
73841;SDS011;62184;52.006;5.924;2023-03-30T13:24:56;18.90;;;5.95;;
73841;SDS011;62184;52.006;5.924;2023-03-30T13:27:28;17.23;;;6.20;;
73841;SDS011;62184;52.006;5.924;2023-03-30T13:29:58;16.48;;;5.82;;
73841;SDS011;62184;52.006;5.924;2023-03-30T13:32:39;17.27;;;5.80;;
73841;SDS011;62184;52.006;5.924;2023-03-30T13:35:27;15.83;;;6.00;;
73841;SDS011;62184;52.006;5.924;2023-03-30T13:41:30;18.15;;;6.45;;
73841;SDS011;62184;52.006;5.924;2023-03-30T13:44:18;16.75;;;6.00;;
73841;SDS011;62184;52.006;5.924;2023-03-30T13:47:05;15.05;;;5.78;;
73841;SDS011;62184;52.006;5.924;2023-03-30T13:49:53;17.33;;;5.68;;
73841;SDS011;62184;52.006;5.924;2023-03-30T13:52:27;18.30;;;6.53;;
73841;SDS011;62184;52.006;5.924;2023-03-30T13:54:58;18.95;;;6.10;;
73841;SDS011;62184;52.006;5.924;2023-03-30T13:57:31;15.10;;;5.50;;
73841;SDS011;62184;52.006;5.924;2023-03-30T14:00:05;16.33;;;5.55;;
73841;SDS011;62184;52.006;5.924;2023-03-30T14:02:45;16.60;;;5.05;;
73841;SDS011;62184;52.006;5.924;2023-03-30T14:05:13;13.90;;;5.40;;
73841;SDS011;62184;52.006;5.924;2023-03-30T14:07:44;16.70;;;5.13;;
73841;SDS011;62184;52.006;5.924;2023-03-30T14:10:11;17.55;;;5.70;;
73841;SDS011;62184;52.006;5.924;2023-03-30T14:12:43;16.70;;;5.53;;
73841;SDS011;62184;52.006;5.924;2023-03-30T14:15:15;16.52;;;5.72;;
73841;SDS011;62184;52.006;5.924;2023-03-30T14:17:46;18.27;;;5.50;;
73841;SDS011;62184;52.006;5.924;2023-03-30T14:20:19;17.25;;;5.68;;
73841;SDS011;62184;52.006;5.924;2023-03-30T14:23:01;16.67;;;5.60;;
73841;SDS011;62184;52.006;5.924;2023-03-30T14:25:31;15.57;;;4.70;;
73841;SDS011;62184;52.006;5.924;2023-03-30T14:28:09;15.82;;;5.00;;
73841;SDS011;62184;52.006;5.924;2023-03-30T14:30:47;17.20;;;5.47;;
73841;SDS011;62184;52.006;5.924;2023-03-30T14:33:15;12.50;;;5.00;;
73841;SDS011;62184;52.006;5.924;2023-03-30T14:35:42;10.57;;;5.23;;
73841;SDS011;62184;52.006;5.924;2023-03-30T14:38:15;12.80;;;5.77;;
73841;SDS011;62184;52.006;5.924;2023-03-30T14:40:46;11.45;;;5.43;;
73841;SDS011;62184;52.006;5.924;2023-03-30T14:43:18;13.32;;;5.68;;
73841;SDS011;62184;52.006;5.924;2023-03-30T14:45:49;13.05;;;5.80;;
73841;SDS011;62184;52.006;5.924;2023-03-30T14:48:19;13.05;;;4.85;;
73841;SDS011;62184;52.006;5.924;2023-03-30T14:50:53;14.52;;;4.82;;
73841;SDS011;62184;52.006;5.924;2023-03-30T14:53:22;13.75;;;4.80;;
73841;SDS011;62184;52.006;5.924;2023-03-30T14:55:52;11.93;;;4.50;;
73841;SDS011;62184;52.006;5.924;2023-03-30T14:58:27;16.05;;;4.63;;
73841;SDS011;62184;52.006;5.924;2023-03-30T15:00:57;14.60;;;4.47;;
73841;SDS011;62184;52.006;5.924;2023-03-30T15:03:27;13.55;;;4.40;;
73841;SDS011;62184;52.006;5.924;2023-03-30T15:05:58;12.90;;;4.45;;
73841;SDS011;62184;52.006;5.924;2023-03-30T15:08:26;13.50;;;4.68;;
73841;SDS011;62184;52.006;5.924;2023-03-30T15:10:58;13.43;;;4.20;;
73841;SDS011;62184;52.006;5.924;2023-03-30T15:13:34;14.03;;;4.37;;
73841;SDS011;62184;52.006;5.924;2023-03-30T15:16:06;12.40;;;4.53;;
73841;SDS011;62184;52.006;5.924;2023-03-30T15:18:34;12.73;;;4.40;;
73841;SDS011;62184;52.006;5.924;2023-03-30T15:21:02;11.95;;;4.40;;
73841;SDS011;62184;52.006;5.924;2023-03-30T15:23:30;12.55;;;4.93;;
73841;SDS011;62184;52.006;5.924;2023-03-30T15:26:00;13.18;;;4.53;;
73841;SDS011;62184;52.006;5.924;2023-03-30T15:28:30;12.93;;;4.43;;